Terminal Aerodrome Forecast
Issued by NWS

Home | Current Version | Previous Version | Text Only | Print | Product List | Glossary On
Versions: 1 2 3 4 5 6 7 8 9 10 11 12 13 14 15 16
000
FTUS43 KGRB 292331
TAFATW
TAF
KATW 292331Z 3000/3024 26013G20KT P6SM VCSH SCT040 BKN080
     FM300200 26009KT P6SM BKN060
     FM300700 26009KT P6SM SCT060
     FM301500 26012G20KT P6SM SCT040
     FM301700 27015G23KT P6SM VCSH BKN050=

USA.gov is the U.S. government's official web portal to all federal, state and local government web resources and services.